地図

経路データ

SID SEASON NUMBER BASIN SUBBASIN NAME ISO_TIME NATURE LAT LON WMO_WIND WMO_PRES WMO_AGENCY TRACK_TYPE DIST2LAND LANDFALL IFLAG USA_AGENCY USA_ATCF_ID USA_LAT USA_LON USA_RECORD USA_STATUS USA_WIND USA_PRES USA_SSHS USA_R34_NE USA_R34_SE USA_R34_SW USA_R34_NW USA_R50_NE USA_R50_SE USA_R50_SW USA_R50_NW USA_R64_NE USA_R64_SE USA_R64_SW USA_R64_NW USA_POCI USA_ROCI USA_RMW USA_EYE TOKYO_LAT TOKYO_LON TOKYO_GRADE TOKYO_WIND TOKYO_PRES TOKYO_R50_DIR TOKYO_R50_LONG TOKYO_R50_SHORT TOKYO_R30_DIR TOKYO_R30_LONG TOKYO_R30_SHORT TOKYO_LAND CMA_LAT CMA_LON CMA_CAT CMA_WIND CMA_PRES HKO_LAT HKO_LON HKO_CAT HKO_WIND HKO_PRES NEWDELHI_LAT NEWDELHI_LON NEWDELHI_GRADE NEWDELHI_WIND NEWDELHI_PRES NEWDELHI_CI NEWDELHI_DP NEWDELHI_POCI REUNION_LAT REUNION_LON REUNION_TYPE REUNION_WIND REUNION_PRES REUNION_TNUM REUNION_CI REUNION_RMW REUNION_R34_NE REUNION_R34_SE REUNION_R34_SW REUNION_R34_NW REUNION_R50_NE REUNION_R50_SE REUNION_R50_SW REUNION_R50_NW REUNION_R64_NE REUNION_R64_SE REUNION_R64_SW REUNION_R64_NW BOM_LAT BOM_LON BOM_TYPE BOM_WIND BOM_PRES BOM_TNUM BOM_CI BOM_RMW BOM_R34_NE BOM_R34_SE BOM_R34_SW BOM_R34_NW BOM_R50_NE BOM_R50_SE BOM_R50_SW BOM_R50_NW BOM_R64_NE BOM_R64_SE BOM_R64_SW BOM_R64_NW BOM_ROCI BOM_POCI BOM_EYE BOM_POS_METHOD BOM_PRES_METHOD NADI_LAT NADI_LON NADI_CAT NADI_WIND NADI_PRES WELLINGTON_LAT WELLINGTON_LON WELLINGTON_WIND WELLINGTON_PRES DS824_LAT DS824_LON DS824_STAGE DS824_WIND DS824_PRES TD9636_LAT TD9636_LON TD9636_STAGE TD9636_WIND TD9636_PRES TD9635_LAT TD9635_LON TD9635_WIND TD9635_PRES TD9635_ROCI NEUMANN_LAT NEUMANN_LON NEUMANN_CLASS NEUMANN_WIND NEUMANN_PRES MLC_LAT MLC_LON MLC_CLASS MLC_WIND MLC_PRES USA_GUST BOM_GUST BOM_GUST_PER REUNION_GUST REUNION_GUST_PER USA_SEAHGT USA_SEARAD_NE USA_SEARAD_SE USA_SEARAD_SW USA_SEARAD_NW STORM_SPEED STORM_DIR
1899309N12117 1899 45 WP MM NOT_NAMED 1899-11-04 16:00:00 NR 11.8000 117.100 main 259 259 __________O___ -1 11.8000 117.100 7 12 291
1899309N12117 1899 45 WP MM NOT_NAMED 1899-11-04 18:00:00 NR 11.9380 116.734 main 304 304 __________P___ -1 11.9380 116.734 7 11 291
1899309N12117 1899 45 WP MM NOT_NAMED 1899-11-04 21:00:00 NR 12.1365 116.197 main 361 361 __________P___ -1 12.1365 116.197 7 11 290
1899309N12117 1899 45 WP MM NOT_NAMED 1899-11-05 00:00:00 NR 12.3145 115.691 main 416 416 __________P___ -1 12.3145 115.691 7 10 289
1899309N12117 1899 45 WP MM NOT_NAMED 1899-11-05 03:00:00 NR 12.4604 115.237 main 466 466 __________P___ -1 12.4604 115.237 7 9 288
1899309N12117 1899 45 WP MM NOT_NAMED 1899-11-05 04:00:00 NR 12.5000 115.100 main 472 472 __________O___ -1 12.5000 115.100 7 8 286
1899309N12117 1899 45 WP MM NOT_NAMED 1899-11-05 06:00:00 NR 12.5646 114.851 main 495 502 __________P___ -1 12.5646 114.851 7 7 284
1899309N12117 1899 45 WP MM NOT_NAMED 1899-11-05 09:00:00 NR 12.6364 114.529 main 524 510 __________P___ -1 12.6364 114.529 7 6 283
1899309N12117 1899 45 WP MM NOT_NAMED 1899-11-05 12:00:00 NR 12.6976 114.248 main 510 488 __________P___ -1 12.6976 114.248 7 5 284
1899309N12117 1899 45 WP MM NOT_NAMED 1899-11-05 15:00:00 NR 12.7697 113.987 main 488 477 __________P___ -1 12.7697 113.987 7 5 287
1899309N12117 1899 45 WP MM NOT_NAMED 1899-11-05 16:00:00 NR 12.8000 113.900 main 477 455 __________O___ -1 12.8000 113.900 7 6 293
1899309N12117 1899 45 WP MM NOT_NAMED 1899-11-05 18:00:00 NR 12.8774 113.721 main 455 433 __________P___ -1 12.8774 113.721 7 6 296
1899309N12117 1899 45 WP MM NOT_NAMED 1899-11-05 21:00:00 NR 13.0125 113.460 main 433 401 __________P___ -1 13.0125 113.460 7 6 299
1899309N12117 1899 45 WP MM NOT_NAMED 1899-11-06 00:00:00 NR 13.1676 113.193 main 402 371 __________P___ -1 13.1676 113.193 7 6 301
1899309N12117 1899 45 WP MM NOT_NAMED 1899-11-06 03:00:00 NR 13.3395 112.904 main 371 361 __________P___ -1 13.3395 112.904 7 7 301
1899309N12117 1899 45 WP MM NOT_NAMED 1899-11-06 04:00:00 NR 13.4000 112.800 main 361 342 __________O___ -1 13.4000 112.800 7 8 298
1899309N12117 1899 45 WP MM NOT_NAMED 1899-11-06 06:00:00 NR 13.5194 112.562 main 342 305 __________P___ -1 13.5194 112.562 7 8 297
1899309N12117 1899 45 WP MM NOT_NAMED 1899-11-06 09:00:00 NR 13.7110 112.181 main 305 269 __________P___ -1 13.7110 112.181 7 9 298
1899309N12117 1899 45 WP MM NOT_NAMED 1899-11-06 12:00:00 NR 13.9148 111.790 main 269 227 __________P___ -1 13.9148 111.790 7 9 299
1899309N12117 1899 45 WP MM NOT_NAMED 1899-11-06 15:00:00 NR 14.1276 111.417 main 227 218 __________P___ -1 14.1276 111.417 7 8 301
1899309N12117 1899 45 WP MM NOT_NAMED 1899-11-06 16:00:00 NR 14.2000 111.300 main 218 199 __________O___ -1 14.2000 111.300 3 8 305
1899309N12117 1899 45 WP MM NOT_NAMED 1899-11-06 18:00:00 NR 14.3467 111.096 main 199 175 __________P___ -1 14.3467 111.096 3 7 309
1899309N12117 1899 45 WP MM NOT_NAMED 1899-11-06 21:00:00 NR 14.5732 110.816 main 179 161 __________P___ -1 14.5732 110.816 3 7 311
1899309N12117 1899 45 WP MM NOT_NAMED 1899-11-07 00:00:00 NR 14.8021 110.553 main 161 133 __________P___ -1 14.8021 110.553 3 7 312
1899309N12117 1899 45 WP MM NOT_NAMED 1899-11-07 03:00:00 NR 15.0270 110.290 main 133 126 __________P___ -1 15.0270 110.290 3 7 311
1899309N12117 1899 45 WP MM NOT_NAMED 1899-11-07 04:00:00 NR 15.1000 110.200 main 126 111 __________O___ -1 15.1000 110.200 4 7 305
1899309N12117 1899 45 WP MM NOT_NAMED 1899-11-07 06:00:00 NR 15.2286 109.998 main 111 88 __________P___ -1 15.2286 109.998 4 7 303
1899309N12117 1899 45 WP MM NOT_NAMED 1899-11-07 09:00:00 NR 15.4149 109.688 main 88 69 __________P___ -1 15.4149 109.688 4 7 303
1899309N12117 1899 45 WP MM NOT_NAMED 1899-11-07 12:00:00 NR 15.6072 109.381 main 69 61 __________P___ -1 15.6072 109.381 4 7 305
1899309N12117 1899 45 WP MM NOT_NAMED 1899-11-07 15:00:00 NR 15.8212 109.091 main 61 61 __________P___ -1 15.8212 109.091 4 7 309
1899309N12117 1899 45 WP MM NOT_NAMED 1899-11-07 16:00:00 NR 15.9000 109.000 main 61 54 __________O___ -1 15.9000 109.000 4 7 315
1899309N12117 1899 45 WP MM NOT_NAMED 1899-11-07 18:00:00 NR 16.0744 108.830 main 54 46 __________P___ -1 16.0744 108.830 4 7 320
1899309N12117 1899 45 WP MM NOT_NAMED 1899-11-07 21:00:00 NR 16.3613 108.594 main 55 48 __________P___ -1 16.3613 108.594 4 7 324
1899309N12117 1899 45 WP MM NOT_NAMED 1899-11-08 00:00:00 NR 16.6702 108.376 main 64 59 __________P___ -1 16.6702 108.376 4 8 327
1899309N12117 1899 45 WP MM NOT_NAMED 1899-11-08 03:00:00 NR 16.9917 108.168 main 78 69 __________P___ -1 16.9917 108.168 4 8 329
1899309N12117 1899 45 WP MM NOT_NAMED 1899-11-08 04:00:00 NR 17.1000 108.100 main 77 77 __________O___ -1 17.1000 108.100 4 7 327
1899309N12117 1899 45 WP MM NOT_NAMED 1899-11-08 06:00:00 NR 17.3031 107.953 main 89 84 __________P___ -1 17.3031 107.953 4 7 326
1899309N12117 1899 45 WP MM NOT_NAMED 1899-11-08 09:00:00 NR 17.6138 107.739 main 84 84 __________P___ -1 17.6138 107.739 4 8 328
1899309N12117 1899 45 WP MM NOT_NAMED 1899-11-08 12:00:00 NR 17.9375 107.537 main 99 97 __________P___ -1 17.9375 107.537 4 8 331
1899309N12117 1899 45 WP MM NOT_NAMED 1899-11-08 15:00:00 NR 18.2804 107.355 main 105 95 __________P___ -1 18.2804 107.355 4 8 334
1899309N12117 1899 45 WP MM NOT_NAMED 1899-11-08 16:00:00 NR 18.4000 107.300 main 100 95 __________O___ -1 18.4000 107.300 4 8 338
1899309N12117 1899 45 WP MM NOT_NAMED 1899-11-08 18:00:00 NR 18.6480 107.198 main 101 107 __________P___ -1 18.6480 107.198 4 8 341
1899309N12117 1899 45 WP MM NOT_NAMED 1899-11-08 21:00:00 NR 19.0384 107.064 main 122 98 __________P___ -1 19.0384 107.064 4 8 343
1899309N12117 1899 45 WP MM NOT_NAMED 1899-11-09 00:00:00 NR 19.4449 106.945 main 98 45 __________P___ -1 19.4449 106.945 4 9 345
1899309N12117 1899 45 WP MM NOT_NAMED 1899-11-09 03:00:00 NR 19.8606 106.836 main 45 38 __________P___ -1 19.8606 106.836 4 9 346
1899309N12117 1899 45 WP MM NOT_NAMED 1899-11-09 04:00:00 NR 20.0000 106.800 main 38 __________O___ -1 20.0000 106.800 4 9 348

デジタル台風データ・検索

IBTrACS Databaseについて

本データベースは、米国NOAAが公開する1842年以降の世界の熱帯低気圧のベストトラックデータアーカイブInternational Best Track Archive for Climate Stewardship (IBTrACS)を、ウェブで閲覧しやすい形式に変換したものです。

最終更新日:2021-12-06